Time;durP1;ratioP1;P1;durP2;ratioP2;P2;SDS_P1;SDS_P2;PMS_P1;PMS_P2;Temp;Humidity;BMP_temperature;BMP_pressure;BME280_temperature;BME280_humidity;BME280_pressure;Samples;Min_cycle;Max_cycle;Signal;HPM_P1;HPM_P2
2021/06/28 00:02:10;;;;;;;29.48;9.58;;;;;;;13.79;73.12;99063.73;2302318;77;20961;-67
2021/06/28 00:05:11;;;;;;;24.65;11.75;;;;;;;13.67;73.27;99065.45;2302168;77;20989;-67
2021/06/28 00:08:11;;;;;;;24.27;11.35;;;;;;;13.50;73.28;99065.30;2302122;77;21531;-66
2021/06/28 00:11:12;;;;;;;27.27;13.35;;;;;;;13.41;73.19;99057.56;2287159;76;21051;-67
2021/06/28 00:14:13;;;;;;;24.67;12.50;;;;;;;13.37;73.29;99067.94;2294274;76;21459;-68
2021/06/28 00:17:13;;;;;;;26.62;12.65;;;;;;;13.37;73.57;99065.30;2321854;76;20944;-68
2021/06/28 00:20:14;;;;;;;26.07;12.63;;;;;;;13.33;73.52;99058.52;2283768;77;20971;-60
2021/06/28 00:23:15;;;;;;;26.57;13.48;;;;;;;13.30;74.14;99053.02;2331361;76;20988;-62
2021/06/28 00:26:16;;;;;;;26.80;12.80;;;;;;;13.28;74.13;99057.53;2299419;77;20979;-60
2021/06/28 00:29:16;;;;;;;23.30;11.33;;;;;;;13.25;73.95;99057.74;2289617;78;21593;-61
2021/06/28 00:32:17;;;;;;;22.93;8.05;;;;;;;13.23;74.23;99061.42;2287371;78;21008;-61
2021/06/28 00:35:18;;;;;;;24.87;10.23;;;;;;;13.20;73.91;99062.95;2294217;76;20988;-60
2021/06/28 00:38:19;;;;;;;23.32;10.72;;;;;;;13.15;74.32;99064.10;2323483;76;20933;-60
2021/06/28 00:41:19;;;;;;;26.57;12.53;;;;;;;13.11;74.09;99069.20;2289946;78;20992;-60
2021/06/28 00:44:20;;;;;;;25.97;11.97;;;;;;;13.13;74.12;99074.37;2287673;78;21032;-60
2021/06/28 00:47:20;;;;;;;29.60;12.85;;;;;;;13.22;74.04;99076.39;2289067;76;21489;-60
2021/06/28 00:50:21;;;;;;;26.50;11.73;;;;;;;13.12;74.59;99074.02;2328451;76;21023;-64
2021/06/28 00:53:21;;;;;;;26.30;11.90;;;;;;;13.04;74.23;99072.37;2291773;77;20991;-60
2021/06/28 00:56:22;;;;;;;25.75;10.95;;;;;;;12.95;74.26;99074.66;2312215;76;20988;-67
2021/06/28 00:59:24;;;;;;;27.10;13.28;;;;;;;12.82;74.25;99074.63;2317036;76;20980;-63
2021/06/28 01:02:24;;;;;;;27.62;12.93;;;;;;;12.65;74.19;99073.59;2288013;78;21011;-61
2021/06/28 01:05:25;;;;;;;32.65;14.13;;;;;;;12.65;74.46;99080.17;2310073;76;20988;-60
2021/06/28 01:08:26;;;;;;;27.13;14.15;;;;;;;12.59;74.27;99077.47;2330131;76;20964;-60
2021/06/28 01:11:26;;;;;;;24.50;10.90;;;;;;;12.59;74.75;99087.99;2345122;76;20983;-60
2021/06/28 01:14:27;;;;;;;24.20;11.93;;;;;;;12.49;74.24;99085.59;2344466;76;21471;-60
2021/06/28 01:17:27;;;;;;;27.87;12.30;;;;;;;12.46;74.49;99076.59;2341562;76;21596;-61
2021/06/28 01:20:28;;;;;;;26.57;13.53;;;;;;;12.46;74.43;99081.85;2341628;76;21009;-60
2021/06/28 01:23:28;;;;;;;29.55;14.50;;;;;;;12.57;75.42;99071.48;2342024;76;20944;-60
2021/06/28 01:26:29;;;;;;;30.88;15.83;;;;;;;12.58;75.04;99072.31;2341690;76;21004;-60
2021/06/28 01:29:29;;;;;;;28.15;14.83;;;;;;;12.56;74.97;99068.47;2341974;76;20949;-60
2021/06/28 01:32:30;;;;;;;27.85;14.45;;;;;;;12.60;75.02;99071.27;2341639;76;21005;-60
2021/06/28 01:35:30;;;;;;;25.88;14.10;;;;;;;12.58;75.15;99072.31;2342082;76;20972;-59
2021/06/28 01:38:31;;;;;;;31.68;16.15;;;;;;;12.60;75.47;99070.44;2341871;76;20992;-68
2021/06/28 01:41:31;;;;;;;32.73;20.20;;;;;;;12.62;75.15;99072.00;2341757;76;20979;-70
2021/06/28 01:44:32;;;;;;;33.63;18.95;;;;;;;12.56;75.25;99064.52;2341814;76;21087;-69
2021/06/28 01:47:32;;;;;;;26.97;14.75;;;;;;;12.49;75.45;99059.28;2341761;76;21435;-69
2021/06/28 01:50:33;;;;;;;26.05;13.50;;;;;;;12.50;75.45;99064.06;2341873;76;21474;-64
2021/06/28 01:53:34;;;;;;;35.20;16.85;;;;;;;12.50;74.96;99062.75;2341733;76;20969;-67
2021/06/28 01:56:35;;;;;;;37.97;20.03;;;;;;;12.39;75.17;99057.72;2342229;76;21027;-66
2021/06/28 01:59:35;;;;;;;24.72;12.25;;;;;;;12.35;75.19;99053.59;2341825;76;21485;-66
2021/06/28 02:02:36;;;;;;;24.65;11.97;;;;;;;12.32;75.28;99059.06;2342015;76;21780;-63
2021/06/28 02:05:36;;;;;;;26.95;12.85;;;;;;;12.32;75.81;99063.48;2341905;76;20972;-61
2021/06/28 02:08:37;;;;;;;28.98;15.23;;;;;;;12.14;75.41;99057.16;2341938;76;21538;-64
2021/06/28 02:11:38;;;;;;;25.48;13.72;;;;;;;12.04;75.38;99059.52;2341742;76;21036;-68
2021/06/28 02:14:38;;;;;;;25.95;13.93;;;;;;;11.95;75.34;99066.66;2341940;76;21031;-68
2021/06/28 02:17:38;;;;;;;25.15;11.38;;;;;;;11.92;75.56;99062.42;2342361;76;20957;-66
2021/06/28 02:20:39;;;;;;;18.85;8.20;;;;;;;11.90;75.83;99066.92;2341925;76;20995;-61
2021/06/28 02:23:39;;;;;;;45.63;10.50;;;;;;;11.87;75.93;99070.22;2342072;76;20937;-64
2021/06/28 02:26:40;;;;;;;23.38;10.23;;;;;;;11.81;75.97;99073.21;2341867;76;20953;-65
2021/06/28 02:29:40;;;;;;;19.32;7.37;;;;;;;11.67;76.28;99077.55;2341951;76;20913;-60
2021/06/28 02:32:41;;;;;;;20.32;8.90;;;;;;;11.58;76.31;99073.70;2340880;76;21519;-60
2021/06/28 02:35:41;;;;;;;12.20;4.75;;;;;;;11.60;76.30;99070.50;2341328;76;20965;-61
2021/06/28 02:38:42;;;;;;;27.52;10.20;;;;;;;11.66;76.27;99068.45;2341601;76;21035;-62
2021/06/28 02:41:42;;;;;;;26.02;11.55;;;;;;;11.61;75.86;99077.45;2341741;76;20938;-60
2021/06/28 02:44:43;;;;;;;24.05;10.80;;;;;;;11.52;75.75;99064.03;2341566;76;20945;-60
2021/06/28 02:47:44;;;;;;;23.47;12.13;;;;;;;11.52;75.73;99064.89;2341560;76;20949;-60
2021/06/28 02:50:44;;;;;;;23.18;11.30;;;;;;;11.53;75.99;99061.30;2341349;76;21455;-60
2021/06/28 02:53:44;;;;;;;22.93;10.95;;;;;;;11.56;76.32;99065.53;2341386;76;21003;-60
2021/06/28 02:56:45;;;;;;;21.95;10.60;;;;;;;11.63;76.24;99055.02;2341640;76;20969;-61
2021/06/28 02:59:45;;;;;;;23.60;11.15;;;;;;;11.71;76.20;99054.09;2341518;76;20945;-60
2021/06/28 03:02:46;;;;;;;27.50;12.98;;;;;;;11.83;76.04;99056.89;2341686;76;20952;-61
2021/06/28 03:05:46;;;;;;;25.05;12.68;;;;;;;11.96;76.18;99052.09;2341395;76;20996;-60
2021/06/28 03:08:47;;;;;;;25.48;13.20;;;;;;;12.10;75.85;99053.86;2341566;76;21049;-60
2021/06/28 03:11:47;;;;;;;27.87;12.10;;;;;;;12.15;75.69;99058.81;2341353;76;20968;-60
2021/06/28 03:14:49;;;;;;;27.67;11.75;;;;;;;12.27;75.79;99059.84;2307815;76;21513;-60
2021/06/28 03:17:49;;;;;;;25.50;11.50;;;;;;;12.41;75.60;99052.36;2304885;77;20967;-63
2021/06/28 03:20:50;;;;;;;24.95;11.35;;;;;;;12.53;75.23;99050.25;2305229;77;21022;-60
2021/06/28 03:23:50;;;;;;;26.52;11.90;;;;;;;12.69;74.99;99044.82;2305031;77;20913;-62
2021/06/28 03:26:51;;;;;;;23.57;10.45;;;;;;;12.91;74.90;99053.91;2305220;77;21079;-62
2021/06/28 03:29:51;;;;;;;25.77;11.73;;;;;;;13.10;74.38;99058.78;2304956;77;20952;-64
2021/06/28 03:32:52;;;;;;;25.12;11.05;;;;;;;13.29;74.50;99057.91;2304888;77;21004;-61
2021/06/28 03:35:52;;;;;;;23.67;11.53;;;;;;;13.61;74.21;99050.91;2304865;77;21541;-61
2021/06/28 03:38:53;;;;;;;23.12;10.43;;;;;;;13.81;74.01;99059.22;2304841;77;20925;-60
2021/06/28 03:41:54;;;;;;;24.30;10.75;;;;;;;14.01;73.95;99059.95;2305126;77;20956;-60
2021/06/28 03:44:55;;;;;;;22.67;10.65;;;;;;;14.26;73.79;99058.66;2304900;77;21009;-62
2021/06/28 03:47:56;;;;;;;25.15;11.03;;;;;;;14.54;73.77;99050.41;2304898;77;21076;-60
2021/06/28 03:50:56;;;;;;;25.65;11.95;;;;;;;14.85;73.39;99052.10;2304974;77;21478;-61
2021/06/28 03:53:56;;;;;;;26.50;12.20;;;;;;;15.16;73.41;99051.11;2304992;77;20971;-63
2021/06/28 03:56:57;;;;;;;27.07;12.45;;;;;;;15.52;72.79;99053.20;2305109;77;20987;-62
2021/06/28 03:59:59;;;;;;;26.62;11.12;;;;;;;15.75;72.57;99053.20;2304877;77;21074;-67
2021/06/28 04:03:01;;;;;;;;;;;;;;;16.03;72.23;99051.03;2307771;77;21055;-63
2021/06/28 04:06:04;;;;;;;25.65;12.37;;;;;;;16.27;71.86;99052.18;2305269;77;20095;-67
2021/06/28 04:09:04;;;;;;;;;;;;;;;16.47;72.08;99055.86;2284269;77;20957;-67
2021/06/28 04:12:04;;;;;;;25.00;12.35;;;;;;;16.87;71.79;99049.91;2304717;77;20123;-65
2021/06/28 04:15:05;;;;;;;30.88;13.78;;;;;;;17.19;71.54;99042.41;2304659;77;21032;-60
2021/06/28 04:18:06;;;;;;;26.12;13.60;;;;;;;17.41;71.26;99048.52;2304649;77;21552;-60
2021/06/28 04:21:07;;;;;;;28.92;14.68;;;;;;;17.74;71.04;99050.55;2316095;76;20998;-61
2021/06/28 04:24:08;;;;;;;28.17;15.00;;;;;;;17.99;70.57;99046.13;2338902;76;21012;-63
2021/06/28 04:27:08;;;;;;;35.17;15.63;;;;;;;18.24;70.25;99053.23;2327762;76;20988;-61
2021/06/28 04:30:09;;;;;;;29.00;14.95;;;;;;;18.43;70.00;99047.13;2335399;76;20981;-60
2021/06/28 04:33:10;;;;;;;30.88;15.05;;;;;;;18.59;70.00;99047.91;2338671;76;20973;-60
2021/06/28 04:36:10;;;;;;;28.80;14.13;;;;;;;18.72;69.53;99052.08;2335417;76;21039;-60
2021/06/28 04:39:11;;;;;;;30.82;15.28;;;;;;;18.89;69.30;99056.70;2314186;77;20972;-62
2021/06/28 04:42:11;;;;;;;27.27;14.05;;;;;;;19.08;69.11;99056.34;2314259;77;21522;-61
2021/06/28 04:45:12;;;;;;;34.50;15.90;;;;;;;19.24;68.83;99051.76;2313516;77;21028;-67
2021/06/28 04:48:15;;;;;;;31.37;17.00;;;;;;;19.45;68.37;99054.23;2312456;77;21012;-62
2021/06/28 04:51:15;;;;;;;;;;;;;;;19.79;68.13;99056.38;2314904;77;21089;-68
2021/06/28 04:54:16;;;;;;;28.40;15.80;;;;;;;20.16;67.53;99060.31;2312072;77;20155;-69
2021/06/28 04:57:17;;;;;;;27.30;14.65;;;;;;;20.34;67.61;99055.03;2324340;76;21460;-61
2021/06/28 05:00:18;;;;;;;25.37;14.83;;;;;;;20.50;67.20;99057.49;2319319;76;21571;-62
2021/06/28 05:03:18;;;;;;;27.35;16.30;;;;;;;20.60;66.98;99057.77;2324711;76;20965;-61
2021/06/28 05:06:19;;;;;;;31.82;14.65;;;;;;;20.82;66.95;99056.17;2323938;76;20934;-64
2021/06/28 05:09:20;;;;;;;28.23;14.23;;;;;;;21.03;66.55;99061.15;2326096;76;20969;-61
2021/06/28 05:12:21;;;;;;;28.38;14.63;;;;;;;21.09;66.45;99059.22;2320134;76;20948;-64
2021/06/28 05:15:21;;;;;;;25.82;14.50;;;;;;;21.18;66.42;99062.27;2313213;76;21003;-65
2021/06/28 05:18:22;;;;;;;27.52;15.18;;;;;;;21.30;66.18;99066.84;2323305;75;20952;-65
2021/06/28 05:21:23;;;;;;;30.05;14.80;;;;;;;21.46;65.98;99064.30;2331682;75;21040;-63
2021/06/28 05:24:24;;;;;;;28.93;14.33;;;;;;;21.62;66.12;99062.72;2325898;75;20970;-62
2021/06/28 05:27:24;;;;;;;26.07;13.62;;;;;;;21.79;65.38;99055.63;2316980;75;20920;-65
2021/06/28 05:30:25;;;;;;;28.80;14.30;;;;;;;21.95;65.59;99058.86;2336071;75;20966;-63
2021/06/28 05:33:25;;;;;;;25.80;14.23;;;;;;;22.10;64.99;99063.11;2331072;75;20937;-62
2021/06/28 05:36:26;;;;;;;24.03;13.33;;;;;;;22.29;64.56;99071.33;2331942;75;20963;-66
2021/06/28 05:39:27;;;;;;;29.10;13.60;;;;;;;22.51;64.06;99072.57;2322330;75;21483;-65
2021/06/28 05:42:28;;;;;;;24.70;13.70;;;;;;;22.86;63.26;99075.11;2331815;75;20926;-66
2021/06/28 05:45:28;;;;;;;26.37;13.40;;;;;;;23.09;62.85;99077.47;2336524;75;21442;-68
2021/06/28 05:48:29;;;;;;;24.47;13.27;;;;;;;23.46;62.93;99081.95;2331456;75;20973;-64
2021/06/28 05:51:30;;;;;;;26.13;13.30;;;;;;;23.68;62.41;99082.56;2324931;75;21434;-65
2021/06/28 05:54:31;;;;;;;27.10;12.60;;;;;;;23.73;61.33;99089.26;2311865;77;20895;-69
2021/06/28 05:57:31;;;;;;;22.50;11.20;;;;;;;23.93;61.56;99085.19;2319703;75;21436;-68
2021/06/28 06:00:32;;;;;;;24.17;11.50;;;;;;;24.18;60.18;99082.42;2325188;75;20961;-69
2021/06/28 06:03:33;;;;;;;20.90;9.18;;;;;;;24.43;59.69;99072.90;2322408;75;21455;-66
2021/06/28 06:06:34;;;;;;;25.23;10.47;;;;;;;24.57;57.01;99078.84;2330252;75;20975;-70
2021/06/28 06:09:35;;;;;;;23.80;10.60;;;;;;;24.50;58.24;99076.54;2324886;75;21016;-67
2021/06/28 06:12:36;;;;;;;22.63;9.10;;;;;;;24.62;58.67;99079.16;2331343;75;21010;-63
2021/06/28 06:15:36;;;;;;;26.00;8.53;;;;;;;24.88;58.30;99084.66;2318860;77;21067;-65
2021/06/28 06:18:37;;;;;;;17.07;6.33;;;;;;;24.82;56.95;99084.88;2315996;77;21525;-64
2021/06/28 06:21:37;;;;;;;18.07;6.13;;;;;;;24.57;54.68;99088.22;2316014;77;21027;-62
2021/06/28 06:24:38;;;;;;;18.80;6.30;;;;;;;24.41;54.16;99092.33;2315631;77;20964;-63
2021/06/28 06:27:38;;;;;;;17.80;6.23;;;;;;;24.44;54.75;99089.29;2315954;77;21027;-63
2021/06/28 06:30:39;;;;;;;17.17;5.67;;;;;;;24.73;53.79;99088.13;2315987;77;21039;-62
2021/06/28 06:33:39;;;;;;;14.53;4.60;;;;;;;24.75;52.11;99093.31;2316223;77;20968;-62
2021/06/28 06:36:40;;;;;;;15.53;5.10;;;;;;;24.92;49.93;99095.89;2316114;77;20983;-63
2021/06/28 06:39:41;;;;;;;16.63;5.60;;;;;;;24.99;51.40;99103.02;2315920;77;21008;-63
2021/06/28 06:42:44;;;;;;;19.17;5.53;;;;;;;25.04;50.65;99095.28;2315705;77;21557;-63
2021/06/28 06:45:45;;;;;;;17.98;5.80;;;;;;;25.40;51.35;99098.67;2315851;77;21060;-62
2021/06/28 06:48:45;;;;;;;11.67;4.43;;;;;;;25.99;50.71;99096.17;2315976;77;20963;-64
2021/06/28 06:51:46;;;;;;;12.57;4.37;;;;;;;26.23;47.21;99106.67;2316733;77;21022;-63
2021/06/28 06:54:46;;;;;;;9.97;4.20;;;;;;;26.15;47.00;99103.23;2316246;77;21011;-65
2021/06/28 06:57:46;;;;;;;13.03;4.80;;;;;;;26.14;47.65;99098.38;2316199;77;20948;-65
2021/06/28 07:00:47;;;;;;;15.30;5.17;;;;;;;26.46;47.46;99101.63;2316088;77;21007;-64
2021/06/28 07:03:47;;;;;;;10.73;3.83;;;;;;;26.54;46.89;99106.91;2316105;77;21469;-63
2021/06/28 07:06:48;;;;;;;14.83;4.60;;;;;;;26.73;46.69;99103.30;2316105;77;21430;-63
2021/06/28 07:09:48;;;;;;;11.40;3.83;;;;;;;26.93;45.91;99104.31;2315970;77;21006;-63
2021/06/28 07:12:49;;;;;;;11.05;3.45;;;;;;;27.29;45.53;99107.94;2315549;77;21047;-63
2021/06/28 07:15:50;;;;;;;9.37;3.10;;;;;;;27.54;42.56;99103.48;2313999;77;20989;-62
2021/06/28 07:18:51;;;;;;;12.90;3.62;;;;;;;27.49;40.74;99101.38;2302540;77;20965;-63
2021/06/28 07:21:51;;;;;;;7.03;3.23;;;;;;;27.35;40.58;99105.83;2302834;77;20965;-62
2021/06/28 07:24:51;;;;;;;9.70;3.57;;;;;;;27.36;41.08;99107.51;2302789;77;20930;-63
2021/06/28 07:27:52;;;;;;;11.00;3.70;;;;;;;27.59;40.88;99105.08;2302676;77;20918;-62
2021/06/28 07:30:57;;;;;;;14.43;4.03;;;;;;;27.90;41.14;99102.45;2302640;77;21452;-62
2021/06/28 07:33:55;;;;;;;10.85;3.75;;;;;;;28.02;40.38;99109.51;2276667;77;20985;-63
2021/06/28 07:36:56;;;;;;;12.97;3.60;;;;;;;28.28;39.97;99106.91;2302437;77;21064;-64
2021/06/28 07:39:56;;;;;;;8.67;3.43;;;;;;;28.25;38.92;99104.62;2302492;77;20946;-63
2021/06/28 07:42:57;;;;;;;11.40;3.80;;;;;;;28.50;39.67;99102.22;2302660;77;21050;-63
2021/06/28 07:45:57;;;;;;;10.77;3.80;;;;;;;28.54;39.08;99111.25;2302531;77;20978;-64
2021/06/28 07:48:58;;;;;;;10.87;3.40;;;;;;;28.41;37.78;99108.00;2302620;77;20973;-63
2021/06/28 07:51:58;;;;;;;9.83;3.40;;;;;;;28.51;36.90;99105.20;2302704;77;20982;-63
2021/06/28 07:54:59;;;;;;;9.23;3.50;;;;;;;28.68;38.91;99106.23;2302531;77;20954;-63
2021/06/28 07:58:00;;;;;;;10.48;3.62;;;;;;;28.78;37.59;99103.14;2302449;77;20942;-63
2021/06/28 08:01:00;;;;;;;9.77;3.60;;;;;;;28.73;36.98;99102.91;2302660;77;20985;-63
2021/06/28 08:04:01;;;;;;;9.10;3.50;;;;;;;28.92;36.41;99102.62;2302355;77;20930;-62
2021/06/28 08:07:01;;;;;;;10.33;3.40;;;;;;;29.03;36.75;99109.61;2280986;77;20981;-66
2021/06/28 08:10:02;;;;;;;9.93;3.43;;;;;;;29.17;35.36;99107.72;2283975;77;20946;-65
2021/06/28 08:13:02;;;;;;;13.00;3.62;;;;;;;29.13;36.31;99101.07;2297386;77;20993;-63
2021/06/28 08:16:03;;;;;;;12.70;3.80;;;;;;;29.43;37.74;99107.43;2303965;77;20944;-64
2021/06/28 08:19:04;;;;;;;8.37;3.40;;;;;;;29.92;37.08;99103.92;2316134;77;20959;-63
2021/06/28 08:22:04;;;;;;;8.55;3.30;;;;;;;30.20;35.27;99104.97;2307876;77;20918;-64
2021/06/28 08:25:05;;;;;;;7.53;3.20;;;;;;;30.36;36.67;99105.00;2306919;77;21524;-65
2021/06/28 08:28:09;;;;;;;11.65;3.42;;;;;;;30.48;34.55;99104.35;2306736;77;21514;-63
2021/06/28 08:31:08;;;;;;;9.35;3.17;;;;;;;29.93;32.35;99108.83;2281259;77;20956;-63
2021/06/28 08:34:09;;;;;;;11.80;3.40;;;;;;;29.50;32.94;99114.19;2310397;77;21010;-71
2021/06/28 08:37:11;;;;;;;7.47;3.27;;;;;;;29.45;31.57;99115.32;2311619;77;22128;-67
2021/06/28 08:40:13;;;;;;;13.68;3.50;;;;;;;29.05;31.32;99108.05;2273389;77;20982;-64
2021/06/28 08:43:14;;;;;;;8.80;3.20;;;;;;;28.75;33.64;99106.22;2306794;77;21077;-63
2021/06/28 08:46:15;;;;;;;6.43;3.40;;;;;;;28.08;32.83;99112.73;2314107;77;20951;-63
2021/06/28 08:49:15;;;;;;;10.23;3.60;;;;;;;27.78;34.94;99105.70;2315835;77;20932;-63
2021/06/28 08:52:15;;;;;;;9.03;3.60;;;;;;;28.10;32.61;99109.31;2315962;77;21046;-63
2021/06/28 08:55:16;;;;;;;7.60;3.33;;;;;;;27.81;32.18;99116.60;2314363;77;20982;-64
2021/06/28 08:58:16;;;;;;;9.73;3.67;;;;;;;27.90;34.32;99117.27;2310859;77;20939;-63
2021/06/28 09:01:17;;;;;;;9.90;3.83;;;;;;;27.74;32.62;99122.47;2309977;77;21002;-64
2021/06/28 09:04:18;;;;;;;7.47;3.50;;;;;;;27.79;33.57;99122.72;2308313;77;20960;-63
2021/06/28 09:07:18;;;;;;;9.80;3.53;;;;;;;27.87;33.71;99118.52;2307519;77;21431;-64
2021/06/28 09:10:21;;;;;;;12.63;4.00;;;;;;;28.12;32.78;99114.83;2308458;77;20982;-67
2021/06/28 09:13:25;;;;;;;8.05;3.20;;;;;;;28.43;33.74;99105.91;2275643;77;22349;-66
2021/06/28 09:16:26;;;;;;;11.50;4.37;;;;;;;29.09;32.96;99103.05;2298946;77;21032;-68
2021/06/28 09:19:26;;;;;;;8.13;3.57;;;;;;;29.07;32.40;99110.01;2271504;78;21055;-65
2021/06/28 09:22:27;;;;;;;9.60;3.50;;;;;;;28.40;32.31;99117.11;2270857;78;20981;-68
2021/06/28 09:25:27;;;;;;;10.80;3.97;;;;;;;28.54;32.42;99120.70;2271735;78;21039;-65
2021/06/28 09:28:27;;;;;;;9.30;3.60;;;;;;;28.48;32.54;99115.59;2272308;78;21012;-65
2021/06/28 09:31:28;;;;;;;13.07;3.60;;;;;;;28.53;32.84;99115.80;2272570;78;20969;-65
2021/06/28 09:34:29;;;;;;;10.67;3.80;;;;;;;28.76;33.10;99113.30;2272658;78;20992;-65
2021/06/28 09:37:29;;;;;;;9.30;3.85;;;;;;;29.29;32.45;99107.95;2272521;78;21045;-65
2021/06/28 09:40:30;;;;;;;10.47;3.47;;;;;;;29.49;33.76;99109.28;2272771;78;21480;-65
2021/06/28 09:43:30;;;;;;;9.87;3.57;;;;;;;29.80;31.91;99103.73;2272981;78;21466;-76
2021/06/28 09:46:31;;;;;;;10.17;3.90;;;;;;;29.72;32.29;99105.30;2272983;78;20965;-74
2021/06/28 09:49:31;;;;;;;10.30;3.60;;;;;;;29.75;31.84;99108.11;2272811;78;20970;-71
2021/06/28 09:52:32;;;;;;;11.17;3.70;;;;;;;29.54;31.85;99108.14;2272768;78;21047;-76
2021/06/28 09:55:35;;;;;;;10.37;3.43;;;;;;;29.89;32.78;99105.70;2272984;78;20968;-75
2021/06/28 09:58:35;;;;;;;8.35;3.50;;;;;;;30.39;32.03;99096.45;2245374;78;21020;-74
2021/06/28 10:01:35;;;;;;;11.33;3.90;;;;;;;30.05;29.65;99103.05;2273033;78;20958;-75
2021/06/28 10:04:38;;;;;;;7.23;3.40;;;;;;;29.07;31.80;99105.14;2273028;78;20954;-65
2021/06/28 10:07:38;;;;;;;12.25;3.98;;;;;;;28.32;31.86;99109.52;2245149;78;21000;-66
2021/06/28 10:10:40;;;;;;;9.08;3.80;;;;;;;28.12;32.01;99101.87;2272758;78;21069;-67
2021/06/28 10:13:41;;;;;;;;;;;;;;;28.55;33.29;99098.91;2275520;78;21046;-66
2021/06/28 10:16:41;;;;;;;11.47;3.70;;;;;;;28.92;31.28;99095.87;2278772;77;20111;-67
2021/06/28 10:19:42;;;;;;;10.80;3.80;;;;;;;28.76;30.84;99103.34;2307256;77;20958;-65
2021/06/28 10:22:42;;;;;;;9.78;3.70;;;;;;;28.58;31.46;99095.80;2306803;77;21017;-66
2021/06/28 10:25:43;;;;;;;10.50;3.60;;;;;;;28.95;32.14;99101.70;2307172;77;20996;-69
2021/06/28 10:28:43;;;;;;;8.80;3.70;;;;;;;29.44;31.83;99089.34;2307125;77;20942;-65
2021/06/28 10:31:44;;;;;;;7.50;3.60;;;;;;;30.04;29.57;99092.77;2306863;77;20977;-67
2021/06/28 10:34:44;;;;;;;11.23;3.70;;;;;;;30.52;33.44;99081.23;2307162;77;20962;-67
2021/06/28 10:37:46;;;;;;;8.80;4.05;;;;;;;30.98;32.39;99077.89;2307011;77;21462;-71
2021/06/28 10:40:46;;;;;;;10.30;3.80;;;;;;;31.16;30.96;99081.20;2307168;77;21068;-71
2021/06/28 10:43:47;;;;;;;8.63;3.45;;;;;;;30.69;29.83;99083.71;2306911;77;21032;-74
2021/06/28 10:46:47;;;;;;;7.43;3.40;;;;;;;30.52;29.50;99078.52;2307026;77;21025;-73
2021/06/28 10:49:50;;;;;;;9.03;3.53;;;;;;;30.35;30.33;99076.81;2306955;77;21049;-72
2021/06/28 10:52:50;;;;;;;9.30;3.47;;;;;;;29.80;29.72;99075.88;2276464;77;20990;-70
2021/06/28 10:55:51;;;;;;;9.53;3.80;;;;;;;29.02;30.39;99076.03;2307140;77;20973;-70
2021/06/28 10:58:51;;;;;;;7.63;3.43;;;;;;;28.80;31.69;99072.19;2307101;77;20969;-72
2021/06/28 11:01:51;;;;;;;10.00;3.50;;;;;;;29.00;31.29;99076.25;2307151;77;20969;-72
2021/06/28 11:04:52;;;;;;;10.43;3.77;;;;;;;29.43;31.87;99071.49;2306583;77;21045;-67
2021/06/28 11:07:52;;;;;;;9.93;3.93;;;;;;;29.43;31.87;99071.49;2307193;77;20970;-72
2021/06/28 11:10:53;;;;;;;10.73;3.90;;;;;;;29.34;31.49;99068.19;2307011;77;20965;-66
2021/06/28 11:13:54;;;;;;;10.10;3.77;;;;;;;29.36;31.73;99070.96;2307037;77;20973;-66
2021/06/28 11:16:54;;;;;;;7.20;3.30;;;;;;;29.83;31.96;99063.31;2306616;77;21041;-73
2021/06/28 11:19:55;;;;;;;9.43;3.50;;;;;;;30.50;29.91;99051.68;2306845;77;21487;-69
2021/06/28 11:23:00;;;;;;;9.65;3.27;;;;;;;30.00;30.17;99052.86;2307015;77;20966;-68
2021/06/28 11:25:59;;;;;;;11.50;3.30;;;;;;;29.43;31.01;99059.33;2276520;77;20965;-71
2021/06/28 11:29:00;;;;;;;8.03;3.40;;;;;;;29.16;32.13;99070.95;2306643;77;21038;-73
2021/06/28 11:32:01;;;;;;;9.18;3.60;;;;;;;28.65;31.37;99062.95;2306771;77;21061;-69
2021/06/28 11:35:01;;;;;;;10.00;3.40;;;;;;;28.54;31.91;99068.91;2307241;77;20923;-69
2021/06/28 11:38:02;;;;;;;8.93;3.07;;;;;;;28.74;31.86;99064.92;2307087;77;21029;-69
2021/06/28 11:41:02;;;;;;;7.77;3.20;;;;;;;28.97;31.59;99065.05;2307203;77;20939;-73
2021/06/28 11:44:02;;;;;;;7.43;2.80;;;;;;;28.86;32.55;99069.19;2307034;77;20981;-72
2021/06/28 11:47:03;;;;;;;4.83;2.70;;;;;;;28.70;31.19;99063.67;2306933;77;21017;-71
2021/06/28 11:50:03;;;;;;;7.70;3.03;;;;;;;28.67;32.49;99055.46;2307075;77;21464;-73
2021/06/28 11:53:04;;;;;;;8.13;3.43;;;;;;;29.26;31.51;99050.84;2306898;77;21520;-74
2021/06/28 11:56:18;;;;;;;7.03;2.90;;;;;;;29.88;30.87;99044.06;2306934;77;20962;-72
2021/06/28 11:59:06;;;;;;;7.12;2.87;;;;;;;30.50;29.48;99042.72;2276463;77;20970;-74
2021/06/28 12:02:08;;;;;;;8.53;3.20;;;;;;;30.56;29.79;99037.80;2306882;77;21511;-67
2021/06/28 12:05:10;;;;;;;10.10;3.25;;;;;;;30.62;28.93;99042.33;2306797;77;21086;-68
2021/06/28 12:08:12;;;;;;;7.60;2.67;;;;;;;30.07;28.65;99034.73;2306737;77;21068;-66
2021/06/28 12:11:13;;;;;;;5.25;2.80;;;;;;;30.28;28.18;99038.15;2306677;77;21587;-71
2021/06/28 12:14:13;;;;;;;7.75;2.90;;;;;;;30.05;28.52;99036.80;2306928;77;20965;-66
2021/06/28 12:17:14;;;;;;;7.50;2.77;;;;;;;30.08;29.74;99027.44;2307563;77;21045;-69
2021/06/28 12:20:18;;;;;;;5.03;2.50;;;;;;;30.57;28.90;99023.20;2310949;77;20985;-68
2021/06/28 12:23:18;;;;;;;6.12;2.90;;;;;;;30.66;27.47;99038.65;2282621;77;21510;-66
2021/06/28 12:26:19;;;;;;;9.63;3.10;;;;;;;30.38;28.21;99034.44;2310720;77;20988;-67
2021/06/28 12:29:20;;;;;;;11.93;3.45;;;;;;;30.74;29.96;99024.85;2310804;77;21009;-70
2021/06/28 12:32:20;;;;;;;6.07;3.00;;;;;;;31.04;29.69;99025.04;2311196;77;20966;-66
2021/06/28 12:35:22;;;;;;;7.85;3.00;;;;;;;31.36;29.14;99020.90;2311065;77;20930;-68
2021/06/28 12:38:23;;;;;;;9.90;3.00;;;;;;;31.24;29.31;99024.85;2310704;77;21012;-66
2021/06/28 12:41:23;;;;;;;7.28;2.80;;;;;;;30.95;27.80;99030.92;2310885;77;20961;-69
2021/06/28 12:44:24;;;;;;;6.17;2.90;;;;;;;30.77;28.53;99028.47;2311063;77;21004;-67
2021/06/28 12:47:24;;;;;;;6.67;2.80;;;;;;;30.64;26.93;99029.93;2311049;77;21020;-66
2021/06/28 12:50:25;;;;;;;7.78;3.25;;;;;;;30.68;28.09;99021.14;2310966;77;21260;-69
2021/06/28 12:53:25;;;;;;;10.10;3.25;;;;;;;31.33;29.15;99011.02;2310901;77;20942;-66
2021/06/28 12:56:26;;;;;;;7.45;2.92;;;;;;;31.97;28.22;99002.06;2310967;77;20942;-70
2021/06/28 12:59:26;;;;;;;8.20;3.00;;;;;;;32.28;26.20;99008.33;2310874;77;20949;-66
2021/06/28 13:02:27;;;;;;;10.55;3.02;;;;;;;32.27;27.22;98998.02;2311033;77;20942;-66
2021/06/28 13:05:27;;;;;;;7.53;3.00;;;;;;;32.51;27.14;98999.42;2310679;77;21534;-66
2021/06/28 13:08:29;;;;;;;5.95;2.50;;;;;;;32.52;27.67;98998.37;2310555;77;21475;-67
2021/06/28 13:11:30;;;;;;;6.08;2.70;;;;;;;32.65;26.26;99003.58;2310775;77;21005;-69
2021/06/28 13:14:32;;;;;;;8.23;3.10;;;;;;;32.32;26.94;99001.38;2311079;77;20914;-67
2021/06/28 13:17:33;;;;;;;8.88;3.12;;;;;;;31.81;26.41;99014.88;2310533;77;21484;-68
2021/06/28 13:20:33;;;;;;;8.18;3.08;;;;;;;30.81;27.71;99014.80;2311091;77;20961;-66
2021/06/28 13:23:33;;;;;;;6.70;3.08;;;;;;;30.18;28.49;99009.68;2310966;77;20934;-66
2021/06/28 13:26:34;;;;;;;6.70;3.07;;;;;;;29.57;29.17;99017.73;2311180;77;20962;-66
2021/06/28 13:29:35;;;;;;;9.73;3.22;;;;;;;29.30;29.04;99021.84;2310911;77;20926;-69
2021/06/28 13:32:35;;;;;;;10.55;3.30;;;;;;;29.59;30.05;99016.17;2310714;77;21032;-74
2021/06/28 13:35:36;;;;;;;6.97;3.30;;;;;;;30.44;28.52;99007.07;2310766;77;21552;-73
2021/06/28 13:38:37;;;;;;;;;;;;;;;30.78;27.91;99011.19;2313547;77;21603;-73
2021/06/28 13:41:38;;;;;;;11.07;3.50;;;;;;;31.45;27.40;99006.52;2311223;77;20096;-73
2021/06/28 13:44:38;;;;;;;10.63;3.50;;;;;;;31.34;28.35;99006.73;2311235;77;20953;-74
2021/06/28 13:47:38;;;;;;;7.43;3.33;;;;;;;31.41;28.53;99010.20;2311054;77;21223;-71
2021/06/28 13:50:39;;;;;;;9.33;3.20;;;;;;;31.09;28.57;99006.80;2311366;77;20993;-75
2021/06/28 13:53:39;;;;;;;8.88;3.22;;;;;;;30.79;28.52;99014.70;2311122;77;21272;-73
2021/06/28 13:56:40;;;;;;;7.63;3.40;;;;;;;30.23;29.14;99007.16;2311252;77;20989;-74
2021/06/28 13:59:40;;;;;;;8.47;3.37;;;;;;;29.77;29.07;98997.39;2311156;77;21009;-67
2021/06/28 14:02:41;;;;;;;10.63;3.53;;;;;;;29.62;29.68;99000.34;2311268;77;21617;-68